Oakdale, Louisiana
Current Conditions -  °F | °C
As of 5:55 PM on Sunday 23 Nov 2014 (Local Time) from KACP Reporting Station
Broken Clouds Broken Clouds  
Wind Chill: 66°   Ceiling: 1200
Heat Index: 66°   Visibility: 10mi
Dew Point: 62°   Wind: 3mph
Humidity: 86%   Direction: 180°S
Pressure: 29.57"   Gusts: NA
Location:  30.82°N, 92.66°W
Report Text: KACP 232355Z AUTO 18003KT 10SM BKN012 19/17 A2957 RMK AO2 T01880165 10234 20188
Loading
Personal Weather Stations






























Interactive Weather Map New forecast layout! Learn more

10-Day Weather Forecast

Advertisements
Track Severe Weather on mobile